Time;durP1;ratioP1;P1;durP2;ratioP2;P2;SDS_P1;SDS_P2;PMS_P1;PMS_P2;Temp;Humidity;BMP_temperature;BMP_pressure;BME280_temperature;BME280_humidity;BME280_pressure;Samples;Min_cycle;Max_cycle;Signal;HPM_P1;HPM_P2
2022/04/02 00:00:56;;;;;;;0.70;0.70;;;;;;;-0.67;76.54;100126.03;8524635;33;20502;-75
2022/04/02 00:05:59;;;;;;;0.70;0.70;;;;;;;-0.69;77.81;100127.88;8524123;33;20422;-76
2022/04/02 00:11:03;;;;;;;0.60;0.60;;;;;;;-0.75;77.57;100128.97;8526066;33;20412;-75
2022/04/02 00:16:08;;;;;;;0.70;0.70;;;;;;;-0.76;77.73;100118.50;8525013;33;20507;-76
2022/04/02 00:21:11;;;;;;;0.90;0.90;;;;;;;-0.81;78.12;100118.66;8525291;33;20375;-75
2022/04/02 00:26:17;;;;;;;0.70;0.70;;;;;;;-0.92;76.69;100122.63;8525134;33;20420;-75
2022/04/02 00:31:23;;;;;;;0.70;0.70;;;;;;;-0.92;77.64;100115.56;8552296;33;20225;-75
2022/04/02 00:36:26;;;;;;;0.70;0.70;;;;;;;-0.98;78.25;100121.09;8528711;33;20228;-75
2022/04/02 00:41:29;;;;;;;0.80;0.80;;;;;;;-1.02;78.61;100122.09;8531586;33;20490;-75
2022/04/02 00:46:34;;;;;;;0.70;0.70;;;;;;;-1.00;78.48;100115.84;8530092;33;20680;-76
2022/04/02 00:51:41;;;;;;;0.60;0.60;;;;;;;-1.04;77.46;100118.66;8529763;33;20817;-75
2022/04/02 00:56:45;;;;;;;0.70;0.70;;;;;;;-1.05;77.05;100127.50;8528334;33;20430;-75
2022/04/02 01:01:50;;;;;;;0.60;0.60;;;;;;;-1.02;78.37;100127.38;8527469;33;20399;-75
2022/04/02 01:06:56;;;;;;;0.80;0.80;;;;;;;-1.05;78.16;100124.84;8527502;33;20128;-75
2022/04/02 01:11:59;;;;;;;0.60;0.60;;;;;;;-1.08;76.72;100124.97;8529283;33;20939;-75
2022/04/02 01:17:07;;;;;;;0.63;0.63;;;;;;;-1.03;77.26;100138.84;8527459;33;22374;-75
2022/04/02 01:22:15;;;;;;;0.80;0.80;;;;;;;-1.04;76.03;100139.75;8528653;33;20135;-75
2022/04/02 01:27:23;;;;;;;0.60;0.60;;;;;;;-1.04;75.98;100152.94;8552534;33;20409;-74
2022/04/02 01:32:33;;;;;;;1.33;1.33;;;;;;;-1.05;75.44;100153.84;8531646;33;20405;-75
2022/04/02 01:37:45;;;;;;;0.60;0.60;;;;;;;-1.03;75.08;100162.56;8520297;33;20367;-75
2022/04/02 01:42:50;;;;;;;0.70;0.70;;;;;;;-1.05;74.76;100159.13;8530260;33;20154;-75
2022/04/02 01:47:55;;;;;;;0.70;0.70;;;;;;;-1.09;73.14;100158.41;8552209;33;20452;-75
2022/04/02 01:53:11;;;;;;;0.70;0.70;;;;;;;-1.08;74.46;100168.00;8528766;33;20430;-75
2022/04/02 01:58:15;;;;;;;0.70;0.70;;;;;;;-1.07;74.41;100177.66;8527794;33;20299;-75
2022/04/02 02:03:22;;;;;;;0.73;0.73;;;;;;;-1.17;73.41;100171.84;8527714;33;20460;-75
2022/04/02 02:08:29;;;;;;;1.27;1.27;;;;;;;-1.08;73.66;100177.69;8528759;33;20413;-75
2022/04/02 02:13:36;;;;;;;0.67;0.67;;;;;;;-1.14;73.14;100183.19;8529509;33;20183;-75
2022/04/02 02:18:45;;;;;;;0.60;0.60;;;;;;;-1.18;72.77;100175.41;8526725;33;20396;-75
2022/04/02 02:23:49;;;;;;;0.60;0.60;;;;;;;-1.19;73.34;100178.94;8527072;33;20730;-75
2022/04/02 02:28:52;;;;;;;0.60;0.60;;;;;;;-1.23;73.51;100189.66;8525777;33;20611;-75
2022/04/02 02:39:37;;;;;;;0.70;0.70;;;;;;;-1.22;73.16;100200.13;8526896;33;20444;-75
2022/04/02 02:44:50;;;;;;;0.70;0.70;;;;;;;-1.25;72.56;100213.44;8527495;33;20417;-74
2022/04/02 02:49:56;;;;;;;0.70;0.70;;;;;;;-1.20;73.65;100215.91;8525335;33;20134;-75
2022/04/02 02:55:08;;;;;;;0.80;0.80;;;;;;;-1.23;72.78;100216.03;8526543;33;20459;-75
2022/04/02 03:00:16;;;;;;;0.70;0.70;;;;;;;-1.31;71.92;100221.56;8524640;33;20415;-75
2022/04/02 03:05:24;;;;;;;0.70;0.70;;;;;;;-1.24;72.66;100217.78;8551010;33;20498;-75
2022/04/02 03:10:33;;;;;;;0.67;0.67;;;;;;;-1.24;73.10;100223.03;8528736;33;20639;-75
2022/04/02 03:15:36;;;;;;;0.60;0.60;;;;;;;-1.33;72.30;100215.47;8528273;33;20408;-75
2022/04/02 03:20:42;;;;;;;0.60;0.60;;;;;;;-1.26;74.08;100222.25;8529116;33;20371;-75
2022/04/02 03:25:51;;;;;;;0.70;0.70;;;;;;;-1.29;73.39;100230.28;8527569;33;20587;-75
2022/04/02 03:30:56;;;;;;;0.70;0.70;;;;;;;-1.27;73.81;100231.06;8527521;33;20186;-75
2022/04/02 03:36:00;;;;;;;0.77;0.77;;;;;;;-1.33;72.78;100233.06;8527187;33;20482;-75
2022/04/02 03:41:05;;;;;;;0.70;0.70;;;;;;;-1.30;72.50;100238.22;8526430;33;20403;-75
2022/04/02 03:51:30;;;;;;;0.60;0.60;;;;;;;-1.37;70.64;100248.13;8526406;33;21382;-75
2022/04/02 03:56:34;;;;;;;2.40;2.17;;;;;;;-1.35;71.50;100250.69;8525317;33;20504;-75
2022/04/02 04:01:41;;;;;;;0.60;0.60;;;;;;;-1.36;70.98;100249.84;8528216;33;20143;-75
2022/04/02 04:06:45;;;;;;;0.80;0.80;;;;;;;-1.32;70.88;100250.59;8531336;33;20400;-75
2022/04/02 04:11:50;;;;;;;0.70;0.70;;;;;;;-1.27;71.88;100256.56;8554516;33;20417;-75
2022/04/02 04:16:56;;;;;;;0.60;0.60;;;;;;;-1.32;70.64;100256.72;8530031;33;20409;-75
2022/04/02 04:21:59;;;;;;;0.67;0.67;;;;;;;-1.27;70.70;100257.41;8556042;33;20435;-76
2022/04/02 04:27:05;;;;;;;0.70;0.70;;;;;;;-1.27;71.55;100270.59;8530154;33;21103;-75
2022/04/02 04:32:12;;;;;;;0.73;0.73;;;;;;;-1.30;71.72;100278.59;8529609;33;20127;-75
2022/04/02 04:37:15;;;;;;;0.50;0.50;;;;;;;-1.31;70.41;100281.31;8529877;33;20497;-75
2022/04/02 04:42:21;;;;;;;0.80;0.80;;;;;;;-1.26;70.95;100287.25;8530182;33;20403;-75
2022/04/02 04:47:30;;;;;;;0.70;0.70;;;;;;;-1.25;70.29;100283.72;8528326;33;20146;-75
2022/04/02 04:52:33;;;;;;;6.43;4.40;;;;;;;-1.27;70.05;100289.03;8529423;33;20556;-75
2022/04/02 04:57:43;;;;;;;8.97;4.50;;;;;;;-1.29;69.92;100297.91;8528849;33;20539;-75
2022/04/02 05:02:55;;;;;;;9.00;4.60;;;;;;;-1.23;69.79;100303.00;8553739;33;20514;-75
2022/04/02 05:08:09;;;;;;;5.70;4.40;;;;;;;-1.21;70.43;100311.69;8553446;33;20410;-74
2022/04/02 05:13:15;;;;;;;8.70;4.80;;;;;;;-1.25;69.93;100315.38;8551799;33;20435;-74
2022/04/02 05:18:23;;;;;;;6.17;3.77;;;;;;;-1.18;69.94;100320.38;8550966;33;20424;-73
2022/04/02 05:23:27;;;;;;;6.10;4.50;;;;;;;-1.16;68.92;100320.31;8527038;33;20401;-74
2022/04/02 05:28:33;;;;;;;7.53;5.03;;;;;;;-1.11;70.25;100326.31;8527149;33;20962;-74
2022/04/02 05:33:37;;;;;;;7.77;4.00;;;;;;;-1.06;71.12;100331.44;8527750;33;21511;-74
2022/04/02 05:38:43;;;;;;;6.73;4.20;;;;;;;-1.07;69.54;100330.56;8527579;33;20131;-74
2022/04/02 05:43:48;;;;;;;5.40;3.80;;;;;;;-1.05;69.40;100344.53;8526572;33;20861;-74
2022/04/02 05:48:51;;;;;;;7.00;4.27;;;;;;;-0.96;69.85;100351.28;8527524;33;20464;-74
2022/04/02 05:53:54;;;;;;;7.93;4.17;;;;;;;-1.03;68.37;100355.91;8528690;33;20402;-74
2022/04/02 05:58:59;;;;;;;6.57;4.33;;;;;;;-0.94;68.81;100357.38;8526140;33;20839;-74
2022/04/02 06:04:03;;;;;;;5.90;4.20;;;;;;;-0.88;67.66;100369.47;8526444;33;20913;-74
2022/04/02 06:09:06;;;;;;;6.67;3.83;;;;;;;-0.85;68.00;100378.19;8525675;33;20906;-75
2022/04/02 06:14:13;;;;;;;6.67;4.00;;;;;;;-0.72;68.81;100384.72;8527181;33;20463;-74
2022/04/02 06:19:20;;;;;;;7.57;4.13;;;;;;;-0.62;67.99;100389.72;8526231;33;20387;-74
2022/04/02 06:24:23;;;;;;;11.57;6.70;;;;;;;-0.53;67.52;100392.88;8526524;33;20529;-74
2022/04/02 06:29:28;;;;;;;4.63;3.30;;;;;;;-0.41;66.46;100402.16;8525891;33;20396;-75
2022/04/02 06:34:31;;;;;;;11.13;5.73;;;;;;;-0.08;65.88;100405.38;8525433;33;20481;-74
2022/04/02 06:39:34;;;;;;;7.63;4.20;;;;;;;0.08;64.42;100412.69;8524349;33;20743;-74
2022/04/02 06:44:39;;;;;;;9.37;4.90;;;;;;;0.28;64.81;100417.25;8525589;33;20408;-74
2022/04/02 06:49:42;;;;;;;6.40;4.20;;;;;;;0.55;63.61;100408.28;8524186;33;20455;-75
2022/04/02 06:54:45;;;;;;;6.80;4.27;;;;;;;0.66;63.68;100417.53;8525554;33;20948;-74
2022/04/02 06:59:50;;;;;;;6.40;4.20;;;;;;;0.57;62.26;100427.56;8525299;33;20416;-74
2022/04/02 07:04:53;;;;;;;5.20;4.07;;;;;;;0.56;62.27;100428.47;8525412;33;20395;-74
2022/04/02 07:09:56;;;;;;;6.43;4.50;;;;;;;0.68;63.23;100428.91;8522152;33;20433;-75
2022/04/02 07:15:01;;;;;;;6.87;4.17;;;;;;;0.71;62.09;100434.09;8524204;33;20656;-75
2022/04/02 07:20:07;;;;;;;10.87;4.40;;;;;;;0.58;62.07;100447.78;8521979;33;20524;-75
2022/04/02 07:25:12;;;;;;;6.40;3.83;;;;;;;0.61;63.02;100444.19;8524706;33;20407;-75
2022/04/02 07:30:16;;;;;;;6.60;4.20;;;;;;;0.72;62.91;100454.34;8523334;33;20416;-75
2022/04/02 07:35:20;;;;;;;7.87;4.20;;;;;;;0.77;63.27;100455.03;8526141;33;20668;-75
2022/04/02 07:40:27;;;;;;;7.90;4.30;;;;;;;1.13;65.31;100460.63;8528940;33;20533;-75
2022/04/02 07:45:41;;;;;;;6.87;4.37;;;;;;;1.02;63.66;100462.84;8528346;33;20426;-74
2022/04/02 07:50:49;;;;;;;7.23;5.47;;;;;;;1.36;65.76;100464.97;8529979;33;20438;-75
2022/04/02 07:55:58;;;;;;;6.20;4.87;;;;;;;1.42;63.68;100474.44;8552313;33;20469;-75
2022/04/02 08:01:05;;;;;;;6.47;4.80;;;;;;;1.46;64.08;100481.34;8552191;33;20408;-75
2022/04/02 08:06:15;;;;;;;10.47;4.93;;;;;;;1.50;63.26;100478.47;8529018;33;21015;-75
2022/04/02 08:11:19;;;;;;;8.73;4.67;;;;;;;1.85;63.81;100476.13;8529809;33;20417;-75
2022/04/02 08:16:25;;;;;;;7.30;5.13;;;;;;;1.95;61.63;100482.75;8528004;33;20270;-75
2022/04/02 08:21:28;;;;;;;8.73;5.33;;;;;;;2.03;62.22;100476.22;8529871;33;20642;-75
2022/04/02 08:26:48;;;;;;;11.03;5.60;;;;;;;2.33;62.17;100496.09;8528724;33;20569;-75
2022/04/02 08:32:11;;;;;;;8.33;4.77;;;;;;;2.58;61.94;100497.66;8529192;33;20490;-75
2022/04/02 08:37:22;;;;;;;5.37;4.77;;;;;;;2.46;59.68;100495.53;8528680;33;20418;-74
2022/04/02 08:43:16;;;;;;;7.63;5.10;;;;;;;2.81;59.48;100499.22;8529593;33;20922;-76
2022/04/02 08:48:26;;;;;;;5.97;4.50;;;;;;;3.08;58.71;100509.50;8527963;33;20412;-76
2022/04/02 08:53:49;;;;;;;9.25;4.28;;;;;;;3.43;55.80;100505.97;8529823;33;20517;-75
2022/04/02 08:59:01;;;;;;;8.13;4.63;;;;;;;3.25;55.46;100499.75;8528493;33;20285;-76
2022/04/02 09:04:55;;;;;;;7.00;4.22;;;;;;;3.47;54.35;100501.38;8528565;33;21782;-76
2022/04/02 09:10:26;;;;;;;6.50;4.13;;;;;;;4.12;54.19;100514.91;8544052;33;20476;-77
2022/04/02 09:15:38;;;;;;;5.88;4.32;;;;;;;4.28;52.52;100521.13;8528279;33;20911;-77
2022/04/02 09:20:56;;;;;;;5.00;3.88;;;;;;;4.47;54.34;100525.47;8527172;33;20339;-77
2022/04/02 09:26:36;;;;;;;7.45;5.00;;;;;;;4.58;55.10;100518.66;8528225;33;22054;-77
2022/04/02 09:32:37;;;;;;;8.73;5.50;;;;;;;4.45;54.45;100525.56;8550871;33;20388;-76
2022/04/02 09:38:23;;;;;;;6.28;4.28;;;;;;;4.09;55.43;100536.34;8514602;33;20446;-77
2022/04/02 09:43:30;;;;;;;6.20;4.85;;;;;;;4.27;55.67;100540.69;8528050;33;20135;-76
2022/04/02 09:48:52;;;;;;;7.23;4.87;;;;;;;3.88;55.55;100540.94;8526036;33;20858;-76
2022/04/02 09:54:04;;;;;;;6.57;4.72;;;;;;;4.41;55.24;100534.63;8527696;33;20420;-77
2022/04/02 09:59:09;;;;;;;9.65;5.03;;;;;;;5.33;54.02;100532.28;8526540;33;20159;-77
2022/04/02 10:04:38;;;;;;;7.07;4.40;;;;;;;5.98;50.24;100534.75;8526707;33;20145;-77
2022/04/02 10:09:47;;;;;;;5.03;4.07;;;;;;;4.94;50.52;100538.03;8522604;33;20856;-77
2022/04/02 10:14:58;;;;;;;6.07;3.88;;;;;;;5.30;52.04;100548.44;8526300;33;20146;-77
2022/04/02 10:20:01;;;;;;;5.70;4.22;;;;;;;5.04;51.37;100539.22;8525509;33;20904;-77
2022/04/02 10:25:10;;;;;;;5.10;3.55;;;;;;;5.30;50.60;100545.78;8526491;33;20405;-77
2022/04/02 10:30:15;;;;;;;4.68;3.50;;;;;;;5.31;50.11;100528.84;8526460;33;20419;-78
2022/04/02 10:35:20;;;;;;;7.68;4.20;;;;;;;5.43;48.39;100533.50;8527407;33;20487;-77
2022/04/02 10:40:28;;;;;;;6.78;4.32;;;;;;;6.07;47.64;100531.50;8526240;33;20151;-77
2022/04/02 10:45:40;;;;;;;4.57;4.03;;;;;;;6.51;46.89;100525.28;8526387;33;20131;-77
2022/04/02 10:50:49;;;;;;;4.50;3.55;;;;;;;5.56;46.36;100527.44;8526640;33;20419;-77
2022/04/02 10:56:01;;;;;;;4.47;4.05;;;;;;;5.78;47.80;100527.91;8526814;33;20188;-77
2022/04/02 11:01:06;;;;;;;3.58;3.17;;;;;;;6.48;46.44;100537.97;8527308;33;20568;-77
2022/04/02 11:06:11;;;;;;;4.43;3.35;;;;;;;6.04;44.32;100538.84;8526676;33;20856;-77
2022/04/02 11:11:23;;;;;;;4.88;3.92;;;;;;;5.16;47.16;100545.72;8525528;33;20450;-78
2022/04/02 11:16:41;;;;;;;9.10;3.72;;;;;;;4.08;48.84;100543.44;8527568;33;20207;-77
2022/04/02 11:21:54;;;;;;;5.40;4.35;;;;;;;3.73;54.46;100547.91;8527916;33;20449;-78
2022/04/02 11:27:01;;;;;;;5.47;4.15;;;;;;;3.11;55.64;100551.81;8526609;33;20444;-77
2022/04/02 11:32:07;;;;;;;6.00;4.40;;;;;;;2.96;56.21;100558.69;8526424;33;20419;-77
2022/04/02 11:37:14;;;;;;;7.05;4.10;;;;;;;3.01;56.24;100561.97;8528032;33;20128;-77
2022/04/02 11:42:25;;;;;;;6.18;3.58;;;;;;;3.09;53.64;100551.88;8526109;33;20364;-77
2022/04/02 11:47:32;;;;;;;5.47;4.13;;;;;;;3.28;53.98;100552.72;8525007;33;20415;-77
2022/04/02 11:52:50;;;;;;;5.40;3.63;;;;;;;3.54;52.38;100555.03;8525792;33;20419;-77
2022/04/02 11:58:05;;;;;;;4.68;3.60;;;;;;;3.89;51.30;100561.25;8522991;33;21059;-77
2022/04/02 12:03:22;;;;;;;5.75;3.47;;;;;;;4.37;49.31;100557.03;8520712;33;20463;-77
2022/04/02 12:08:31;;;;;;;6.38;3.85;;;;;;;4.73;47.79;100551.53;8525329;33;20412;-77
2022/04/02 12:13:36;;;;;;;3.28;2.97;;;;;;;5.93;46.79;100547.47;8526422;33;20489;-77
2022/04/02 12:18:54;;;;;;;3.97;2.88;;;;;;;7.09;42.78;100546.63;8525624;33;20625;-77
2022/04/02 12:23:57;;;;;;;4.47;2.92;;;;;;;7.39;40.88;100541.13;8527679;33;20135;-76
2022/04/02 12:29:04;;;;;;;4.78;2.60;;;;;;;6.02;42.48;100540.75;8528610;33;20944;-76
2022/04/02 12:34:09;;;;;;;3.47;2.90;;;;;;;5.34;43.58;100546.47;8493912;33;20932;-76
2022/04/02 12:39:12;;;;;;;3.45;2.72;;;;;;;5.14;42.96;100552.91;8582812;32;20498;-76
2022/04/02 12:44:21;;;;;;;4.55;2.85;;;;;;;5.55;43.28;100552.38;8585419;32;20435;-76
2022/04/02 12:49:30;;;;;;;4.07;3.10;;;;;;;6.82;41.26;100548.25;8587923;32;20188;-75
2022/04/02 12:54:33;;;;;;;5.18;2.70;;;;;;;7.83;37.43;100545.34;8587549;32;20420;-75
2022/04/02 12:59:43;;;;;;;3.40;2.60;;;;;;;8.69;37.04;100550.19;8585403;32;20985;-76
2022/04/02 13:04:53;;;;;;;5.43;2.85;;;;;;;8.92;34.25;100529.81;8586438;32;20416;-76
2022/04/02 13:09:57;;;;;;;3.13;2.83;;;;;;;7.76;35.57;100539.53;8585357;32;20372;-76
2022/04/02 13:15:05;;;;;;;2.88;2.63;;;;;;;7.43;36.93;100538.16;8585146;32;20386;-76
2022/04/02 13:20:30;;;;;;;3.70;2.65;;;;;;;7.30;36.40;100536.41;8584757;32;20399;-77
2022/04/02 13:25:43;;;;;;;3.15;2.33;;;;;;;6.70;37.90;100541.00;8586273;32;20982;-76
2022/04/02 13:30:51;;;;;;;3.70;2.75;;;;;;;7.02;37.84;100532.81;8570312;32;21223;-76
2022/04/02 13:36:04;;;;;;;3.10;2.25;;;;;;;6.75;38.57;100540.75;8540224;32;20903;-76
2022/04/02 13:41:14;;;;;;;4.80;4.03;;;;;;;6.60;39.28;100539.88;8525227;33;20828;-76
2022/04/02 13:46:25;;;;;;;4.60;3.10;;;;;;;6.26;39.28;100541.09;8525330;33;20395;-76
2022/04/02 13:51:53;;;;;;;4.35;2.65;;;;;;;7.17;39.73;100531.81;8525901;33;20258;-76
2022/04/02 13:57:00;;;;;;;2.88;2.55;;;;;;;7.00;37.09;100535.59;8525568;33;20822;-75
2022/04/02 14:02:06;;;;;;;3.97;2.80;;;;;;;6.36;38.81;100528.88;8525599;33;20424;-75
2022/04/02 14:07:09;;;;;;;2.63;2.40;;;;;;;8.08;35.63;100541.88;8525668;33;20284;-76
2022/04/02 14:12:20;;;;;;;4.82;2.70;;;;;;;9.70;33.36;100530.25;8525991;33;20492;-76
2022/04/02 14:17:30;;;;;;;2.83;2.55;;;;;;;10.72;32.51;100539.44;8524427;33;20162;-76
2022/04/02 14:22:46;;;;;;;3.83;2.60;;;;;;;10.20;31.79;100523.88;8524724;33;20397;-76
2022/04/02 14:28:25;;;;;;;3.80;2.25;;;;;;;8.04;33.80;100535.03;8525247;33;20186;-75
2022/04/02 14:34:04;;;;;;;3.00;2.25;;;;;;;6.83;35.88;100547.31;8520668;33;20792;-75
2022/04/02 14:39:41;;;;;;;3.47;3.08;;;;;;;6.56;37.46;100541.03;8528563;33;20933;-76
2022/04/02 14:45:16;;;;;;;4.18;2.90;;;;;;;8.46;34.69;100533.91;8526634;33;20413;-75
2022/04/02 14:50:59;;;;;;;3.17;2.90;;;;;;;7.30;35.84;100545.25;8548137;33;20632;-75
2022/04/02 14:56:59;;;;;;;3.25;2.85;;;;;;;6.07;36.38;100544.84;8525066;33;20157;-75
2022/04/02 15:02:47;;;;;;;3.60;2.92;;;;;;;5.46;38.41;100538.63;8523887;33;20409;-75
2022/04/02 15:08:32;;;;;;;4.13;3.10;;;;;;;7.28;36.68;100533.81;8525135;33;20427;-75
2022/04/02 15:13:36;;;;;;;4.40;3.17;;;;;;;7.00;34.54;100546.28;8528656;33;20431;-75
2022/04/02 15:18:39;;;;;;;3.38;2.63;;;;;;;6.43;35.32;100543.56;8524968;33;20460;-75
2022/04/02 15:24:14;;;;;;;3.20;2.90;;;;;;;6.05;35.81;100538.75;8524745;33;20415;-75
2022/04/02 15:29:25;;;;;;;4.03;3.38;;;;;;;6.47;34.69;100544.22;8513146;33;20417;-75
2022/04/02 15:34:30;;;;;;;4.13;2.80;;;;;;;7.65;33.67;100536.72;8523491;33;20288;-75
2022/04/02 15:39:38;;;;;;;3.38;2.83;;;;;;;7.34;33.76;100551.25;8514745;33;20216;-74
2022/04/02 15:44:42;;;;;;;5.70;3.00;;;;;;;6.99;33.89;100554.38;8517129;33;20141;-74
2022/04/02 15:49:46;;;;;;;3.20;2.90;;;;;;;7.05;34.57;100556.66;8522662;33;20162;-75
2022/04/02 15:54:57;;;;;;;4.78;3.20;;;;;;;6.43;34.54;100556.91;8523060;33;20477;-76
2022/04/02 16:00:25;;;;;;;5.25;2.90;;;;;;;5.91;35.42;100562.72;8528987;33;20368;-76
2022/04/02 16:05:33;;;;;;;3.10;2.88;;;;;;;5.63;35.84;100574.97;8561184;32;20508;-76
2022/04/02 16:10:43;;;;;;;4.85;3.22;;;;;;;6.07;34.83;100568.84;8530324;32;20446;-76
2022/04/02 16:16:02;;;;;;;3.65;2.75;;;;;;;6.53;34.03;100570.56;8572700;32;20425;-76
2022/04/02 16:21:24;;;;;;;4.57;3.00;;;;;;;7.02;33.76;100568.41;8510799;32;20413;-76
2022/04/02 16:26:29;;;;;;;3.83;3.00;;;;;;;6.90;34.85;100581.66;8586768;32;20497;-76
2022/04/02 16:31:36;;;;;;;3.45;2.88;;;;;;;6.14;33.96;100588.00;8541708;33;20510;-76
2022/04/02 16:36:40;;;;;;;5.82;3.38;;;;;;;5.55;35.35;100600.34;8528715;33;20402;-76
2022/04/02 16:41:46;;;;;;;3.17;2.85;;;;;;;5.16;35.93;100601.63;8576144;32;20426;-76
2022/04/02 16:46:50;;;;;;;3.38;3.08;;;;;;;4.89;36.99;100604.81;8564561;32;21398;-76
2022/04/02 16:52:02;;;;;;;3.53;3.17;;;;;;;4.77;37.49;100616.97;8580783;32;20463;-76
2022/04/02 16:57:24;;;;;;;4.28;3.40;;;;;;;4.70;38.41;100614.72;8565022;32;20584;-75
2022/04/02 17:02:36;;;;;;;3.65;3.17;;;;;;;4.61;38.38;100621.41;8521162;33;20459;-75
2022/04/02 17:07:48;;;;;;;4.80;3.30;;;;;;;4.50;37.96;100616.63;8510577;33;20467;-76
2022/04/02 17:12:55;;;;;;;3.90;3.00;;;;;;;4.29;38.63;100625.72;8527451;33;21060;-76
2022/04/02 17:18:06;;;;;;;4.50;3.03;;;;;;;4.16;39.16;100630.78;8492549;33;20519;-76
2022/04/02 17:23:09;;;;;;;3.63;2.70;;;;;;;4.08;38.70;100635.63;8528185;33;20419;-75
2022/04/02 17:28:15;;;;;;;2.90;2.55;;;;;;;3.96;38.59;100637.09;8526318;33;20413;-75
2022/04/02 17:33:24;;;;;;;3.15;2.42;;;;;;;3.91;38.74;100647.09;8526100;33;20404;-75
2022/04/02 17:38:29;;;;;;;4.57;2.67;;;;;;;3.76;38.90;100656.69;8526852;33;20415;-76
2022/04/02 17:43:34;;;;;;;3.95;2.50;;;;;;;3.70;39.54;100660.50;8526669;33;20192;-76
2022/04/02 17:48:37;;;;;;;2.78;2.45;;;;;;;3.56;41.10;100659.41;8524781;33;20841;-75
2022/04/02 17:53:42;;;;;;;2.67;2.20;;;;;;;3.36;41.17;100665.69;8526133;33;20416;-76
2022/04/02 17:58:48;;;;;;;3.97;2.42;;;;;;;3.23;41.03;100683.97;8518669;33;21136;-75
2022/04/02 18:03:53;;;;;;;4.43;2.87;;;;;;;3.08;41.65;100696.16;8518142;33;20193;-76
2022/04/02 18:08:59;;;;;;;3.92;2.65;;;;;;;2.89;41.83;100689.94;8575583;32;20472;-75
2022/04/02 18:14:05;;;;;;;3.60;2.83;;;;;;;2.80;42.14;100704.47;8578466;32;21417;-76
2022/04/02 18:19:10;;;;;;;3.70;2.63;;;;;;;2.72;42.39;100715.41;8582928;32;20122;-76
2022/04/02 18:24:13;;;;;;;4.27;3.27;;;;;;;2.67;43.26;100728.00;8576760;32;20193;-75
2022/04/02 18:29:17;;;;;;;4.53;3.43;;;;;;;2.65;43.65;100729.84;8576276;32;20860;-77
2022/04/02 18:34:20;;;;;;;5.50;3.93;;;;;;;2.56;43.41;100740.88;8576495;32;20126;-75
2022/04/02 18:39:24;;;;;;;5.30;3.93;;;;;;;2.42;43.45;100744.06;8576319;32;20461;-75
2022/04/02 18:44:28;;;;;;;4.73;3.80;;;;;;;2.33;43.56;100761.22;8574710;32;20496;-76
2022/04/02 18:49:31;;;;;;;6.47;3.60;;;;;;;2.23;44.48;100761.66;8575862;32;20150;-75
2022/04/02 18:54:35;;;;;;;3.53;3.00;;;;;;;2.11;44.67;100757.69;8575856;32;20205;-75
2022/04/02 18:59:39;;;;;;;4.40;4.00;;;;;;;2.04;44.89;100766.81;8573777;32;20596;-75
2022/04/02 19:04:42;;;;;;;6.73;4.00;;;;;;;1.92;45.06;100773.44;8576416;32;20804;-75
2022/04/02 19:09:45;;;;;;;7.07;3.90;;;;;;;1.77;46.02;100782.84;8576208;32;20127;-76
2022/04/02 19:14:49;;;;;;;4.90;3.97;;;;;;;1.66;47.03;100787.69;8575424;32;20301;-76
2022/04/02 19:19:52;;;;;;;4.00;3.43;;;;;;;1.54;47.18;100791.66;8572939;32;20130;-75
2022/04/02 19:24:55;;;;;;;5.47;4.03;;;;;;;1.51;47.83;100799.72;8573351;32;20443;-75
2022/04/02 19:30:00;;;;;;;4.80;3.57;;;;;;;1.42;49.74;100803.56;8577860;32;20135;-75
2022/04/02 19:35:04;;;;;;;4.30;3.43;;;;;;;1.43;51.47;100822.97;8571475;32;20409;-76
2022/04/02 19:40:27;;;;;;;5.53;3.90;;;;;;;1.39;52.83;100813.41;8509319;33;20127;-74
2022/04/02 19:45:33;;;;;;;12.27;6.80;;;;;;;1.33;53.63;100826.88;8531524;33;20427;-76
2022/04/02 19:50:36;;;;;;;6.60;4.53;;;;;;;1.24;54.89;100833.34;8530624;33;20332;-75
2022/04/02 19:55:39;;;;;;;6.70;4.53;;;;;;;1.15;55.65;100833.66;8476607;33;20407;-75
2022/04/02 20:00:45;;;;;;;6.17;4.50;;;;;;;1.05;56.16;100830.47;8478963;33;20422;-75
2022/04/02 20:05:48;;;;;;;7.07;4.43;;;;;;;0.86;56.86;100835.53;8486004;33;22021;-76
2022/04/02 20:10:51;;;;;;;7.80;4.60;;;;;;;0.93;57.59;100842.31;8523546;33;20865;-75
2022/04/02 20:15:56;;;;;;;6.90;5.10;;;;;;;0.83;57.81;100839.13;8521770;33;20334;-76
2022/04/02 20:21:00;;;;;;;5.73;4.27;;;;;;;0.79;58.53;100850.72;8516391;33;20448;-75
2022/04/02 20:26:03;;;;;;;7.63;4.77;;;;;;;0.73;58.57;100856.22;8514185;33;20855;-75
2022/04/02 20:31:08;;;;;;;6.73;4.87;;;;;;;0.69;59.07;100857.25;8514311;33;20417;-75
2022/04/02 20:36:12;;;;;;;8.10;6.27;;;;;;;0.67;59.07;100864.34;8513276;33;20124;-75
2022/04/02 20:41:15;;;;;;;8.00;5.10;;;;;;;0.70;59.54;100868.69;8513815;33;21091;-76
2022/04/02 20:46:21;;;;;;;7.17;5.20;;;;;;;0.59;59.53;100863.72;8459276;33;20387;-75
2022/04/02 20:51:24;;;;;;;5.53;4.60;;;;;;;0.57;59.73;100871.69;8485048;33;20797;-75
2022/04/02 20:56:27;;;;;;;5.87;4.93;;;;;;;0.59;59.71;100876.97;8518230;33;20124;-76
2022/04/02 21:01:32;;;;;;;5.40;4.43;;;;;;;0.57;60.53;100879.63;8518864;33;20418;-76
2022/04/02 21:06:35;;;;;;;6.67;4.70;;;;;;;0.55;60.26;100889.41;8519054;33;21097;-75
2022/04/02 21:11:38;;;;;;;7.13;5.00;;;;;;;0.57;60.18;100894.63;8518851;33;20410;-76
2022/04/02 21:16:43;;;;;;;7.90;5.37;;;;;;;0.50;60.21;100901.91;8517085;33;20506;-75
2022/04/02 21:21:47;;;;;;;6.77;5.43;;;;;;;0.48;60.57;100900.22;8517844;33;20407;-76
2022/04/02 21:26:51;;;;;;;10.07;6.10;;;;;;;0.31;60.40;100912.19;8517677;33;20470;-76
2022/04/02 21:31:56;;;;;;;7.60;5.53;;;;;;;0.17;61.62;100917.88;8516439;33;20427;-76
2022/04/02 21:37:02;;;;;;;9.13;5.47;;;;;;;0.08;62.08;100920.78;8518230;33;20419;-75
2022/04/02 21:42:05;;;;;;;6.97;5.13;;;;;;;-0.01;62.39;100928.97;8518962;33;21686;-75
2022/04/02 21:47:11;;;;;;;6.33;5.07;;;;;;;-0.08;62.31;100924.78;8518440;33;20436;-76
2022/04/02 21:52:14;;;;;;;7.17;5.63;;;;;;;-0.11;62.18;100920.44;8517948;33;20948;-77
2022/04/02 21:57:17;;;;;;;7.27;5.47;;;;;;;-0.11;62.29;100923.09;8517606;33;21197;-77
2022/04/02 22:02:31;;;;;;;6.33;5.27;;;;;;;-0.24;62.74;100932.25;8518018;33;20503;-77
2022/04/02 22:07:34;;;;;;;8.00;5.73;;;;;;;-0.46;63.16;100934.63;8517050;33;20475;-76
2022/04/02 22:12:37;;;;;;;8.20;5.63;;;;;;;-0.50;63.40;100940.88;8518611;33;20435;-77
2022/04/02 22:17:42;;;;;;;10.23;6.10;;;;;;;-0.60;63.52;100947.31;8518538;33;20460;-77
2022/04/02 22:22:46;;;;;;;7.27;5.37;;;;;;;-0.62;64.01;100943.84;8520176;33;20166;-77
2022/04/02 22:27:49;;;;;;;7.63;5.80;;;;;;;-0.74;64.01;100947.63;8519838;33;20297;-77
2022/04/02 22:32:54;;;;;;;10.63;6.07;;;;;;;-1.07;64.88;100954.59;8517282;33;20397;-77
2022/04/02 22:37:57;;;;;;;7.43;5.40;;;;;;;-1.04;65.39;100957.16;8520922;33;20884;-76
2022/04/02 22:43:02;;;;;;;7.43;5.47;;;;;;;-1.04;65.17;100965.06;8530819;33;20419;-76
2022/04/02 22:48:07;;;;;;;6.73;5.50;;;;;;;-1.10;65.10;100965.22;8525633;33;21022;-77
2022/04/02 22:53:11;;;;;;;8.33;5.77;;;;;;;-1.14;64.92;100967.06;8524080;33;20418;-78
2022/04/02 22:58:14;;;;;;;7.53;5.73;;;;;;;-1.15;65.10;100964.47;8523649;33;20418;-76
2022/04/02 23:03:19;;;;;;;10.87;6.67;;;;;;;-1.19;64.93;100971.59;8523791;33;20900;-77
2022/04/02 23:08:22;;;;;;;8.67;6.10;;;;;;;-1.27;65.19;100971.75;8522478;33;20562;-77
2022/04/02 23:13:25;;;;;;;7.73;5.60;;;;;;;-1.33;65.46;100977.16;8523335;33;20490;-77
2022/04/02 23:18:30;;;;;;;11.53;6.67;;;;;;;-1.42;65.64;100975.63;8521791;33;20477;-76
2022/04/02 23:23:34;;;;;;;10.57;6.23;;;;;;;-1.60;66.23;100977.78;8524412;33;20415;-76
2022/04/02 23:28:37;;;;;;;11.80;6.80;;;;;;;-1.57;66.29;100990.88;8523245;33;22133;-76
2022/04/02 23:33:41;;;;;;;10.20;7.10;;;;;;;-1.56;66.47;100979.44;8523387;33;20435;-76
2022/04/02 23:38:44;;;;;;;11.43;7.00;;;;;;;-1.49;66.48;100979.28;8522963;33;20922;-77
2022/04/02 23:43:47;;;;;;;9.23;6.37;;;;;;;-1.50;66.69;100971.41;8523187;33;20431;-77
2022/04/02 23:48:52;;;;;;;9.77;6.67;;;;;;;-1.47;66.39;100980.13;8523416;33;20483;-77
2022/04/02 23:53:55;;;;;;;10.60;6.47;;;;;;;-1.44;66.59;100976.53;8521615;33;20417;-78
2022/04/02 23:58:58;;;;;;;7.60;5.97;;;;;;;-1.45;66.60;100980.09;8523207;33;20438;-77
